sensor_id;sensor_type;location;lat;lon;timestamp;temperature;humidity
23495;DHT22;26107;50.832;2.950;2023-09-19T00:12:58;16.10;99.90
23495;DHT22;26107;50.832;2.950;2023-09-19T00:27:59;16.10;99.90
23495;DHT22;26107;50.832;2.950;2023-09-19T00:43:00;15.80;99.90
23495;DHT22;26107;50.832;2.950;2023-09-19T00:58:01;16.00;99.90
23495;DHT22;26107;50.832;2.950;2023-09-19T01:43:42;15.70;99.90
23495;DHT22;26107;50.832;2.950;2023-09-19T01:58:45;15.60;99.90
23495;DHT22;26107;50.832;2.950;2023-09-19T02:13:48;15.60;99.90
23495;DHT22;26107;50.832;2.950;2023-09-19T02:28:54;15.30;99.90
23495;DHT22;26107;50.832;2.950;2023-09-19T02:43:55;15.30;99.90
23495;DHT22;26107;50.832;2.950;2023-09-19T02:58:59;15.00;99.90
23495;DHT22;26107;50.832;2.950;2023-09-19T03:14:00;15.30;99.90
23495;DHT22;26107;50.832;2.950;2023-09-19T03:29:03;15.20;99.90
23495;DHT22;26107;50.832;2.950;2023-09-19T03:44:06;15.20;99.90
23495;DHT22;26107;50.832;2.950;2023-09-19T03:59:07;14.80;99.90
23495;DHT22;26107;50.832;2.950;2023-09-19T04:14:09;14.60;99.90
23495;DHT22;26107;50.832;2.950;2023-09-19T04:29:11;14.50;99.90
23495;DHT22;26107;50.832;2.950;2023-09-19T04:44:14;14.30;99.90
23495;DHT22;26107;50.832;2.950;2023-09-19T04:59:17;14.60;99.90
23495;DHT22;26107;50.832;2.950;2023-09-19T05:14:17;14.60;99.90
23495;DHT22;26107;50.832;2.950;2023-09-19T05:29:18;14.80;99.90
23495;DHT22;26107;50.832;2.950;2023-09-19T05:44:21;14.50;99.90
23495;DHT22;26107;50.832;2.950;2023-09-19T05:59:21;14.40;99.90
23495;DHT22;26107;50.832;2.950;2023-09-19T06:14:24;14.80;99.90
23495;DHT22;26107;50.832;2.950;2023-09-19T06:29:25;14.80;99.90
23495;DHT22;26107;50.832;2.950;2023-09-19T06:44:25;14.70;99.90
23495;DHT22;26107;50.832;2.950;2023-09-19T06:59:29;14.70;99.90
23495;DHT22;26107;50.832;2.950;2023-09-19T07:14:32;14.70;99.90
23495;DHT22;26107;50.832;2.950;2023-09-19T07:29:35;15.00;99.90
23495;DHT22;26107;50.832;2.950;2023-09-19T07:44:36;14.80;99.90
23495;DHT22;26107;50.832;2.950;2023-09-19T07:59:37;15.10;99.90
23495;DHT22;26107;50.832;2.950;2023-09-19T08:14:42;15.40;99.90
23495;DHT22;26107;50.832;2.950;2023-09-19T08:29:42;15.70;99.90
23495;DHT22;26107;50.832;2.950;2023-09-19T08:44:43;16.00;99.90
23495;DHT22;26107;50.832;2.950;2023-09-19T08:59:44;16.30;99.90
23495;DHT22;26107;50.832;2.950;2023-09-19T09:14:47;16.70;99.90
23495;DHT22;26107;50.832;2.950;2023-09-19T09:29:55;16.80;99.90
23495;DHT22;26107;50.832;2.950;2023-09-19T09:45:12;17.10;99.90
23495;DHT22;26107;50.832;2.950;2023-09-19T10:00:15;17.50;99.90
23495;DHT22;26107;50.832;2.950;2023-09-19T10:15:22;17.90;99.90
23495;DHT22;26107;50.832;2.950;2023-09-19T10:30:25;17.80;99.90
23495;DHT22;26107;50.832;2.950;2023-09-19T10:45:25;18.40;99.90
23495;DHT22;26107;50.832;2.950;2023-09-19T11:00:29;18.30;99.90
23495;DHT22;26107;50.832;2.950;2023-09-19T11:30:51;18.40;99.90
23495;DHT22;26107;50.832;2.950;2023-09-19T12:01:01;18.50;99.90
23495;DHT22;26107;50.832;2.950;2023-09-19T12:16:17;18.80;99.90
23495;DHT22;26107;50.832;2.950;2023-09-19T12:31:18;19.10;99.90
23495;DHT22;26107;50.832;2.950;2023-09-19T12:46:20;19.20;99.90
23495;DHT22;26107;50.832;2.950;2023-09-19T13:01:26;19.60;99.90
23495;DHT22;26107;50.832;2.950;2023-09-19T13:16:32;19.30;99.90
23495;DHT22;26107;50.832;2.950;2023-09-19T13:31:33;19.10;99.90
23495;DHT22;26107;50.832;2.950;2023-09-19T13:46:33;19.20;99.90
23495;DHT22;26107;50.832;2.950;2023-09-19T14:01:35;19.10;99.90
23495;DHT22;26107;50.832;2.950;2023-09-19T14:16:36;19.50;99.90
23495;DHT22;26107;50.832;2.950;2023-09-19T14:31:37;19.00;99.90
23495;DHT22;26107;50.832;2.950;2023-09-19T14:46:38;18.90;99.90
23495;DHT22;26107;50.832;2.950;2023-09-19T15:01:41;18.90;99.90
23495;DHT22;26107;50.832;2.950;2023-09-19T15:16:44;18.60;99.90
23495;DHT22;26107;50.832;2.950;2023-09-19T15:31:45;18.60;99.90
23495;DHT22;26107;50.832;2.950;2023-09-19T15:46:46;18.50;99.90
23495;DHT22;26107;50.832;2.950;2023-09-19T16:01:46;18.00;99.90
23495;DHT22;26107;50.832;2.950;2023-09-19T16:16:48;17.70;99.90
23495;DHT22;26107;50.832;2.950;2023-09-19T16:31:54;17.70;99.90
23495;DHT22;26107;50.832;2.950;2023-09-19T16:46:55;17.70;99.90
23495;DHT22;26107;50.832;2.950;2023-09-19T17:01:57;17.60;99.90
23495;DHT22;26107;50.832;2.950;2023-09-19T17:16:58;17.80;99.90
23495;DHT22;26107;50.832;2.950;2023-09-19T17:31:59;17.80;99.90
23495;DHT22;26107;50.832;2.950;2023-09-19T17:47:01;18.20;99.90
23495;DHT22;26107;50.832;2.950;2023-09-19T18:02:02;17.90;99.90
23495;DHT22;26107;50.832;2.950;2023-09-19T18:17:03;18.00;99.90
23495;DHT22;26107;50.832;2.950;2023-09-19T18:32:03;18.10;99.90
23495;DHT22;26107;50.832;2.950;2023-09-19T18:47:07;18.10;99.90
23495;DHT22;26107;50.832;2.950;2023-09-19T19:02:08;18.10;99.90
23495;DHT22;26107;50.832;2.950;2023-09-19T19:17:10;18.30;99.90
23495;DHT22;26107;50.832;2.950;2023-09-19T19:32:12;18.60;99.90
23495;DHT22;26107;50.832;2.950;2023-09-19T19:47:13;18.50;99.90
23495;DHT22;26107;50.832;2.950;2023-09-19T20:02:14;18.60;99.90
23495;DHT22;26107;50.832;2.950;2023-09-19T20:17:17;18.60;99.90
23495;DHT22;26107;50.832;2.950;2023-09-19T20:32:18;18.80;99.90
23495;DHT22;26107;50.832;2.950;2023-09-19T20:47:19;18.70;99.90
23495;DHT22;26107;50.832;2.950;2023-09-19T21:02:22;18.70;99.90
23495;DHT22;26107;50.832;2.950;2023-09-19T21:17:25;18.60;99.90
23495;DHT22;26107;50.832;2.950;2023-09-19T21:32:28;18.90;99.90
23495;DHT22;26107;50.832;2.950;2023-09-19T21:47:28;18.70;99.90
23495;DHT22;26107;50.832;2.950;2023-09-19T22:02:29;18.80;99.90
23495;DHT22;26107;50.832;2.950;2023-09-19T22:17:32;18.80;99.90
23495;DHT22;26107;50.832;2.950;2023-09-19T22:32:35;19.20;99.90
23495;DHT22;26107;50.832;2.950;2023-09-19T22:47:37;19.00;99.90
23495;DHT22;26107;50.832;2.950;2023-09-19T23:02:38;19.00;99.90
23495;DHT22;26107;50.832;2.950;2023-09-19T23:17:42;18.80;99.90
23495;DHT22;26107;50.832;2.950;2023-09-19T23:32:42;19.10;99.90
23495;DHT22;26107;50.832;2.950;2023-09-19T23:47:43;18.70;99.90
